createdAt,value
2023-04-27T00:00:18.443Z,5.40
2023-04-27T00:01:49.771Z,6.13
2023-04-27T00:03:21.515Z,6.05
2023-04-27T00:04:53.348Z,5.76
2023-04-27T00:06:24.901Z,6.09
2023-04-27T00:07:56.180Z,5.71
2023-04-27T00:09:27.420Z,5.62
2023-04-27T00:10:58.668Z,5.66
2023-04-27T00:12:30.042Z,5.87
2023-04-27T00:14:01.395Z,5.58
2023-04-27T00:15:33.649Z,5.87
2023-04-27T00:17:04.958Z,6.13
2023-04-27T00:18:36.274Z,5.70
2023-04-27T00:20:07.560Z,5.37
2023-04-27T00:21:38.811Z,5.41
2023-04-27T00:23:15.414Z,5.52
2023-04-27T00:24:51.717Z,5.74
2023-04-27T00:26:29.273Z,5.94
2023-04-27T00:28:00.562Z,6.27
2023-04-27T00:29:31.886Z,5.82
2023-04-27T00:31:03.128Z,5.90
2023-04-27T00:32:34.614Z,5.87
2023-04-27T00:34:06.219Z,5.61
2023-04-27T00:35:37.413Z,5.93
2023-04-27T00:37:08.699Z,5.61
2023-04-27T00:38:39.927Z,5.66
2023-04-27T00:40:11.661Z,5.70
2023-04-27T00:41:43.127Z,5.88
2023-04-27T00:43:14.514Z,5.99
2023-04-27T00:44:45.861Z,5.98
2023-04-27T00:46:17.148Z,5.88
2023-04-27T00:47:48.434Z,6.18
2023-04-27T00:49:19.814Z,6.21
2023-04-27T00:50:51.613Z,6.10
2023-04-27T00:52:22.989Z,6.35
2023-04-27T00:53:54.535Z,6.41
2023-04-27T00:55:25.745Z,6.15
2023-04-27T00:57:18.188Z,6.22
2023-04-27T00:58:51.636Z,5.97
2023-04-27T01:00:23.521Z,6.30
2023-04-27T01:01:54.900Z,6.31
2023-04-27T01:03:26.386Z,6.69
2023-04-27T01:04:57.718Z,6.60
2023-04-27T01:06:29.005Z,6.38
2023-04-27T01:08:00.357Z,6.35
2023-04-27T01:09:31.665Z,6.29
2023-04-27T01:11:13.146Z,6.58
2023-04-27T01:12:49.416Z,5.93
2023-04-27T01:14:48.067Z,6.23
2023-04-27T01:16:38.420Z,6.46
2023-04-27T01:18:10.210Z,6.42
2023-04-27T01:19:49.332Z,6.09
2023-04-27T01:21:32.561Z,6.35
2023-04-27T01:23:23.251Z,6.25
2023-04-27T01:24:55.168Z,6.75
2023-04-27T01:26:46.564Z,6.50
2023-04-27T01:28:17.829Z,6.31
2023-04-27T01:29:49.292Z,6.84
2023-04-27T01:31:20.545Z,6.83
2023-04-27T01:32:51.832Z,6.69
2023-04-27T01:34:23.099Z,6.84
2023-04-27T01:35:54.371Z,7.22
2023-04-27T01:37:25.729Z,6.89
2023-04-27T01:38:57.264Z,6.50
2023-04-27T01:40:28.755Z,6.51
2023-04-27T01:42:00.410Z,6.62
2023-04-27T01:43:47.208Z,6.58
2023-04-27T01:45:19.261Z,6.31
2023-04-27T01:46:51.479Z,6.65
2023-04-27T01:48:23.926Z,6.77
2023-04-27T01:49:56.010Z,6.84
2023-04-27T01:51:27.944Z,6.85
2023-04-27T01:52:59.267Z,7.35
2023-04-27T01:54:30.733Z,6.89
2023-04-27T01:56:02.552Z,6.49
2023-04-27T01:57:34.098Z,6.92
2023-04-27T01:59:05.246Z,7.10
2023-04-27T02:00:46.518Z,7.31
2023-04-27T02:02:17.852Z,7.07
2023-04-27T02:03:56.889Z,7.17
2023-04-27T02:05:28.310Z,6.83
2023-04-27T02:06:59.584Z,7.29
2023-04-27T02:08:40.938Z,6.83
2023-04-27T02:10:12.191Z,7.04
2023-04-27T02:11:43.531Z,7.46
2023-04-27T02:13:14.726Z,7.59
2023-04-27T02:14:46.057Z,7.34
2023-04-27T02:16:17.654Z,7.40
2023-04-27T02:17:49.092Z,7.81
2023-04-27T02:19:20.529Z,7.50
2023-04-27T02:20:52.085Z,7.57
2023-04-27T02:22:23.333Z,7.79
2023-04-27T02:23:54.620Z,7.80
2023-04-27T02:25:25.852Z,7.62
2023-04-27T02:26:57.038Z,7.53
2023-04-27T02:28:28.421Z,7.73
2023-04-27T02:30:00.201Z,7.68
2023-04-27T02:31:31.898Z,7.52
2023-04-27T02:33:03.258Z,7.18
2023-04-27T02:34:34.510Z,6.99
2023-04-27T02:36:05.822Z,6.72
2023-04-27T02:37:37.156Z,7.01
2023-04-27T02:39:08.614Z,7.35
2023-04-27T02:40:39.940Z,7.66
2023-04-27T02:42:11.131Z,7.88
2023-04-27T02:43:42.383Z,7.78
2023-04-27T02:45:13.745Z,7.50
2023-04-27T02:46:45.224Z,7.32
2023-04-27T02:48:16.609Z,7.49
2023-04-27T02:49:48.064Z,7.93
2023-04-27T02:51:19.241Z,7.82
2023-04-27T02:52:50.626Z,7.83
2023-04-27T02:54:22.408Z,7.75
2023-04-27T02:55:53.699Z,8.13
2023-04-27T02:57:25.024Z,7.89
2023-04-27T02:58:56.379Z,7.76
2023-04-27T03:00:27.939Z,7.73
2023-04-27T03:01:59.501Z,8.06
2023-04-27T03:03:31.204Z,8.28
2023-04-27T03:05:02.730Z,8.31
2023-04-27T03:06:34.024Z,8.39
2023-04-27T03:08:05.281Z,8.18
2023-04-27T03:09:36.673Z,7.74
2023-04-27T03:11:08.142Z,7.72
2023-04-27T03:12:39.500Z,7.76
2023-04-27T03:14:11.185Z,8.45
2023-04-27T03:15:42.556Z,8.31
2023-04-27T03:17:13.927Z,8.45
2023-04-27T03:18:45.196Z,8.22
2023-04-27T03:20:16.480Z,7.93
2023-04-27T03:21:47.873Z,8.15
2023-04-27T03:23:19.204Z,8.14
2023-04-27T03:24:50.530Z,8.19
2023-04-27T03:26:21.857Z,8.18
2023-04-27T03:27:53.066Z,8.26
2023-04-27T03:29:24.424Z,8.52
2023-04-27T03:30:55.908Z,8.46
2023-04-27T03:32:27.160Z,8.57
2023-04-27T03:33:58.543Z,8.19
2023-04-27T03:35:29.862Z,8.09
2023-04-27T03:37:01.214Z,8.29
2023-04-27T03:38:32.501Z,8.54
2023-04-27T03:40:03.842Z,8.86
2023-04-27T03:41:35.002Z,8.70
2023-04-27T03:43:06.272Z,8.46
2023-04-27T03:44:37.556Z,8.65
2023-04-27T03:46:08.848Z,8.46
2023-04-27T03:47:40.207Z,8.94
2023-04-27T03:49:11.636Z,8.79
2023-04-27T03:50:42.932Z,8.95
2023-04-27T03:52:14.068Z,9.06
2023-04-27T03:53:45.294Z,9.02
2023-04-27T03:55:16.557Z,8.54
2023-04-27T03:56:47.944Z,9.08
2023-04-27T03:58:19.179Z,8.89
2023-04-27T03:59:50.374Z,8.49
2023-04-27T04:01:21.601Z,8.91
2023-04-27T04:02:53.311Z,9.11
2023-04-27T04:04:25.115Z,9.17
2023-04-27T04:05:56.848Z,8.94
2023-04-27T04:07:28.396Z,9.02
2023-04-27T04:08:59.645Z,8.94
2023-04-27T04:10:31.066Z,9.13
2023-04-27T04:12:02.464Z,8.96
2023-04-27T04:13:33.651Z,8.99
2023-04-27T04:15:05.023Z,9.06
2023-04-27T04:16:36.437Z,9.01
2023-04-27T04:18:07.791Z,9.02
2023-04-27T04:19:39.169Z,9.23
2023-04-27T04:21:10.426Z,9.37
2023-04-27T04:22:41.630Z,9.29
2023-04-27T04:24:12.845Z,9.10
2023-04-27T04:25:44.045Z,9.51
2023-04-27T04:27:15.520Z,9.41
2023-04-27T04:29:12.202Z,9.34
2023-04-27T04:31:51.676Z,9.50
2023-04-27T04:33:23.183Z,9.64
2023-04-27T04:35:04.442Z,9.85
2023-04-27T04:36:36.256Z,10.04
2023-04-27T04:38:07.617Z,9.63
2023-04-27T04:39:38.988Z,9.20
2023-04-27T04:41:10.417Z,9.30
2023-04-27T04:42:42.167Z,9.43
2023-04-27T04:44:13.384Z,9.59
2023-04-27T04:45:44.531Z,9.98
2023-04-27T04:47:15.741Z,9.79
2023-04-27T04:48:47.209Z,10.16
2023-04-27T04:50:18.672Z,10.22
2023-04-27T04:51:49.862Z,9.64
2023-04-27T04:53:21.160Z,9.95
2023-04-27T04:54:52.710Z,9.74
2023-04-27T04:56:23.996Z,9.98
2023-04-27T04:58:00.339Z,10.14
2023-04-27T04:59:32.796Z,10.37
2023-04-27T05:01:03.994Z,10.39
2023-04-27T05:02:35.442Z,10.13
2023-04-27T05:04:07.234Z,10.38
2023-04-27T05:05:39.646Z,10.16
2023-04-27T05:07:12.565Z,10.12
2023-04-27T05:08:45.417Z,10.08
2023-04-27T05:10:16.667Z,10.17
2023-04-27T05:11:47.924Z,10.02
2023-04-27T05:13:19.792Z,10.33
2023-04-27T05:14:51.141Z,9.88
2023-04-27T05:16:22.518Z,10.32
2023-04-27T05:17:53.825Z,10.02
2023-04-27T05:19:30.072Z,9.93
2023-04-27T05:21:01.451Z,10.06
2023-04-27T05:22:32.929Z,9.66
2023-04-27T05:24:04.174Z,9.96
2023-04-27T05:25:35.385Z,9.63
2023-04-27T05:27:06.631Z,9.47
2023-04-27T05:28:38.044Z,9.89
2023-04-27T05:30:19.237Z,9.76
2023-04-27T05:31:50.846Z,10.03
2023-04-27T05:33:22.321Z,10.20
2023-04-27T05:34:53.567Z,9.92
2023-04-27T05:36:24.756Z,9.98
2023-04-27T05:37:56.072Z,9.72
2023-04-27T05:39:27.590Z,9.39
2023-04-27T05:40:59.136Z,9.51
2023-04-27T05:42:30.542Z,8.90
2023-04-27T05:44:02.292Z,9.31
2023-04-27T05:45:33.782Z,9.16
2023-04-27T05:47:05.073Z,9.15
2023-04-27T05:48:48.536Z,9.19
2023-04-27T05:50:20.202Z,9.16
2023-04-27T05:51:51.437Z,9.08
2023-04-27T05:53:22.856Z,8.69
2023-04-27T05:54:59.399Z,9.44
2023-04-27T05:56:31.014Z,8.67
2023-04-27T05:58:10.604Z,9.14
2023-04-27T05:59:43.281Z,9.03
2023-04-27T06:01:14.891Z,8.76
2023-04-27T06:02:46.476Z,8.76
2023-04-27T06:04:18.518Z,8.85
2023-04-27T06:05:50.318Z,8.82
2023-04-27T06:07:21.684Z,8.90
2023-04-27T06:08:58.080Z,8.51
2023-04-27T06:10:30.167Z,8.59
2023-04-27T06:12:01.449Z,8.54
2023-04-27T06:13:42.750Z,8.66
2023-04-27T06:15:14.074Z,8.34
2023-04-27T06:17:05.540Z,8.39
2023-04-27T06:18:36.947Z,8.22
2023-04-27T06:20:08.118Z,7.52
2023-04-27T06:21:39.304Z,7.69
2023-04-27T06:23:10.522Z,8.29
2023-04-27T06:24:41.738Z,7.91
2023-04-27T06:26:13.184Z,8.00
2023-04-27T06:27:44.592Z,7.31
2023-04-27T06:29:16.184Z,6.72
2023-04-27T06:30:47.651Z,6.74
2023-04-27T06:32:19.017Z,6.48
2023-04-27T06:33:50.282Z,6.51
2023-04-27T06:35:26.611Z,6.15
2023-04-27T06:36:57.985Z,5.58
2023-04-27T06:38:29.486Z,5.29
2023-04-27T06:40:00.999Z,4.84
2023-04-27T06:41:32.270Z,5.00
2023-04-27T06:43:03.620Z,5.06
2023-04-27T06:44:35.038Z,5.11
2023-04-27T06:46:06.297Z,5.02
2023-04-27T06:47:37.516Z,5.15
2023-04-27T06:49:08.914Z,5.44
2023-04-27T06:50:40.226Z,5.25
2023-04-27T06:52:11.737Z,4.65
2023-04-27T06:53:43.332Z,4.09
2023-04-27T06:55:14.631Z,3.99
2023-04-27T06:56:45.898Z,4.46
2023-04-27T06:58:17.374Z,4.21
2023-04-27T06:59:48.700Z,4.15
2023-04-27T07:01:20.216Z,4.55
2023-04-27T07:02:51.895Z,4.76
2023-04-27T07:04:33.422Z,4.62
2023-04-27T07:06:04.683Z,4.87
2023-04-27T07:07:35.971Z,4.42
2023-04-27T07:09:13.490Z,4.56
2023-04-27T07:10:57.780Z,4.25
2023-04-27T07:12:29.096Z,4.32
2023-04-27T07:14:00.309Z,4.30
2023-04-27T07:15:31.626Z,4.69
2023-04-27T07:17:02.974Z,4.57
2023-04-27T07:18:35.340Z,4.75
2023-04-27T07:20:06.758Z,4.66
2023-04-27T07:21:38.167Z,4.40
2023-04-27T07:23:09.820Z,4.24
2023-04-27T07:24:41.649Z,4.15
2023-04-27T07:26:12.887Z,4.00
2023-04-27T07:27:44.123Z,3.59
2023-04-27T07:29:26.657Z,4.04
2023-04-27T07:30:58.610Z,4.12
2023-04-27T07:32:29.854Z,3.79
2023-04-27T07:34:01.195Z,3.83
2023-04-27T07:35:32.478Z,3.65
2023-04-27T07:37:08.889Z,3.56
2023-04-27T07:38:40.130Z,3.30
2023-04-27T07:40:11.644Z,3.50
2023-04-27T07:41:43.024Z,3.51
2023-04-27T07:43:14.403Z,3.62
2023-04-27T07:44:45.905Z,3.89
2023-04-27T07:46:17.303Z,3.62
2023-04-27T07:47:48.986Z,3.56
2023-04-27T07:49:20.536Z,3.71
2023-04-27T07:50:51.814Z,3.68
2023-04-27T07:52:23.263Z,3.58
2023-04-27T07:53:54.530Z,3.84
2023-04-27T07:55:31.521Z,3.57
2023-04-27T07:57:02.740Z,3.47
2023-04-27T07:58:39.000Z,3.30
2023-04-27T08:00:21.246Z,3.68
2023-04-27T08:01:54.406Z,3.54
2023-04-27T08:03:38.988Z,3.38
2023-04-27T08:05:10.978Z,3.10
2023-04-27T08:06:54.965Z,3.20
2023-04-27T08:08:26.985Z,3.42
2023-04-27T08:10:11.293Z,3.25
2023-04-27T08:11:42.524Z,3.70
2023-04-27T08:13:30.875Z,3.46
2023-04-27T08:15:02.184Z,3.71
2023-04-27T08:16:33.694Z,3.77
2023-04-27T08:18:05.049Z,3.81
2023-04-27T08:20:11.322Z,3.73
2023-04-27T08:21:59.589Z,4.01
2023-04-27T08:23:31.030Z,4.04
2023-04-27T08:25:07.240Z,3.86
2023-04-27T08:26:48.676Z,3.61
2023-04-27T08:28:20.050Z,3.52
2023-04-27T08:29:51.571Z,3.89
2023-04-27T08:31:22.894Z,4.25
2023-04-27T08:32:54.449Z,4.05
2023-04-27T08:34:26.230Z,3.88
2023-04-27T08:35:57.739Z,4.11
2023-04-27T08:37:29.023Z,3.88
2023-04-27T08:39:00.365Z,4.01
2023-04-27T08:40:31.904Z,3.97
2023-04-27T08:42:03.816Z,3.89
2023-04-27T08:43:35.129Z,3.99
2023-04-27T08:45:06.380Z,3.73
2023-04-27T08:46:37.702Z,3.53
2023-04-27T08:48:09.090Z,3.49
2023-04-27T08:49:40.458Z,3.54
2023-04-27T08:51:11.729Z,3.46
2023-04-27T08:52:42.980Z,3.64
2023-04-27T08:54:14.263Z,3.42
2023-04-27T08:55:45.451Z,3.59
2023-04-27T08:57:17.794Z,3.71
2023-04-27T08:58:49.079Z,3.49
2023-04-27T09:00:20.344Z,4.01
2023-04-27T09:01:51.675Z,3.68
2023-04-27T09:03:23.527Z,3.31
2023-04-27T09:04:55.431Z,3.74
2023-04-27T09:06:27.289Z,3.04
2023-04-27T09:07:59.584Z,3.01
2023-04-27T09:09:36.275Z,3.42
2023-04-27T09:11:07.781Z,3.58
2023-04-27T09:12:39.088Z,3.52
2023-04-27T09:14:10.722Z,3.22
2023-04-27T09:15:48.520Z,3.35
2023-04-27T09:17:20.188Z,3.20
2023-04-27T09:18:51.591Z,3.39
2023-04-27T09:20:22.823Z,3.57
2023-04-27T09:21:58.136Z,3.95
2023-04-27T09:23:29.379Z,3.82
2023-04-27T09:25:00.902Z,3.09
2023-04-27T09:26:32.518Z,3.16
2023-04-27T09:28:03.936Z,2.94
2023-04-27T09:29:35.316Z,3.11
2023-04-27T09:31:06.744Z,3.26
2023-04-27T09:32:38.144Z,3.17
2023-04-27T09:34:09.505Z,3.13
2023-04-27T09:35:41.153Z,3.02
2023-04-27T09:37:12.495Z,3.11
2023-04-27T09:38:43.817Z,2.84
2023-04-27T09:40:15.065Z,3.09
2023-04-27T09:41:46.315Z,3.15
2023-04-27T09:43:17.777Z,3.06
2023-04-27T09:44:49.374Z,3.20
2023-04-27T09:46:21.230Z,2.97
2023-04-27T09:47:52.710Z,2.97
2023-04-27T09:49:24.271Z,3.15
2023-04-27T09:50:55.610Z,3.17
2023-04-27T09:52:27.147Z,3.09
2023-04-27T09:53:58.584Z,3.45
2023-04-27T09:55:30.178Z,3.44
2023-04-27T09:57:01.838Z,3.21
2023-04-27T09:58:33.471Z,3.19
2023-04-27T10:00:04.804Z,2.97
2023-04-27T10:01:37.526Z,3.24
2023-04-27T10:03:09.050Z,3.10
2023-04-27T10:04:40.737Z,3.40
2023-04-27T10:06:12.251Z,3.14
2023-04-27T10:07:43.638Z,3.03
2023-04-27T10:09:15.448Z,3.11
2023-04-27T10:10:47.100Z,2.90
2023-04-27T10:12:18.405Z,3.10
2023-04-27T10:13:50.078Z,3.20
2023-04-27T10:15:22.221Z,3.23
2023-04-27T10:16:53.561Z,3.38
2023-04-27T10:18:24.990Z,3.45
2023-04-27T10:19:57.940Z,3.34
2023-04-27T10:21:30.000Z,3.22
2023-04-27T10:23:01.610Z,3.25
2023-04-27T10:25:00.088Z,3.44
2023-04-27T10:26:32.954Z,3.25
2023-04-27T10:28:05.088Z,2.97
2023-04-27T10:29:36.510Z,3.01
2023-04-27T10:31:08.334Z,3.14
2023-04-27T10:32:40.202Z,3.23
2023-04-27T10:34:12.261Z,3.58
2023-04-27T10:35:43.787Z,3.34
2023-04-27T10:37:15.472Z,2.98
2023-04-27T10:38:49.801Z,3.12
2023-04-27T10:40:41.366Z,3.31
2023-04-27T10:42:42.040Z,3.26
2023-04-27T10:44:13.834Z,3.22
2023-04-27T10:45:45.498Z,3.19
2023-04-27T10:47:17.200Z,3.28
2023-04-27T10:48:48.667Z,3.19
2023-04-27T10:50:20.284Z,3.10
2023-04-27T10:51:51.983Z,3.65
2023-04-27T10:53:23.355Z,3.59
2023-04-27T10:54:55.146Z,3.08
2023-04-27T10:56:27.458Z,3.32
2023-04-27T10:57:59.053Z,3.31
2023-04-27T10:59:30.321Z,3.22
2023-04-27T11:01:01.986Z,3.53
2023-04-27T11:02:33.529Z,3.48
2023-04-27T11:04:04.890Z,3.41
2023-04-27T11:05:36.296Z,3.52
2023-04-27T11:09:09.147Z,3.48
2023-04-27T11:10:40.655Z,3.55
2023-04-27T11:12:11.995Z,3.36
2023-04-27T11:13:43.466Z,4.17
2023-04-27T11:15:15.647Z,3.85
2023-04-27T11:16:47.155Z,3.82
2023-04-27T11:18:18.682Z,3.40
2023-04-27T11:19:50.149Z,3.34
2023-04-27T11:21:21.593Z,3.29
2023-04-27T11:22:52.935Z,3.62
2023-04-27T11:24:24.284Z,3.55
2023-04-27T11:25:55.620Z,3.53
2023-04-27T11:27:26.997Z,3.83
2023-04-27T11:28:58.356Z,3.74
2023-04-27T11:30:29.773Z,3.68
2023-04-27T11:32:01.326Z,4.22
2023-04-27T11:33:32.922Z,4.12
2023-04-27T11:35:04.368Z,3.78
2023-04-27T11:36:35.764Z,3.93
2023-04-27T11:38:07.140Z,3.60
2023-04-27T11:39:38.643Z,3.68
2023-04-27T11:41:09.982Z,3.61
2023-04-27T11:42:41.371Z,3.68
2023-04-27T11:44:12.714Z,3.81
2023-04-27T11:45:44.298Z,3.61
2023-04-27T11:47:18.239Z,3.87
2023-04-27T11:48:50.302Z,3.88
2023-04-27T11:50:21.710Z,3.50
2023-04-27T11:51:53.087Z,3.71
2023-04-27T11:53:24.497Z,3.67
2023-04-27T11:55:01.071Z,3.44
2023-04-27T11:56:32.615Z,3.70
2023-04-27T11:58:03.969Z,3.58
2023-04-27T11:59:35.505Z,3.54
2023-04-27T12:01:07.113Z,3.66
2023-04-27T12:02:38.933Z,3.73
2023-04-27T12:04:10.827Z,3.81
2023-04-27T12:05:42.414Z,3.83
2023-04-27T12:07:14.154Z,3.71
2023-04-27T12:08:45.584Z,3.83
2023-04-27T12:10:17.243Z,4.11
2023-04-27T12:11:48.654Z,3.87
2023-04-27T12:13:20.165Z,3.75
2023-04-27T12:14:51.783Z,3.76
2023-04-27T12:16:23.544Z,4.09
2023-04-27T12:17:55.047Z,3.81
2023-04-27T12:19:26.531Z,3.77
2023-04-27T12:21:01.525Z,3.88
2023-04-27T12:22:34.426Z,3.92
2023-04-27T12:24:06.288Z,3.79
2023-04-27T12:25:37.853Z,3.66
2023-04-27T12:27:09.394Z,3.55
2023-04-27T12:28:40.874Z,3.77
2023-04-27T12:30:12.482Z,3.59
2023-04-27T12:31:44.106Z,3.72
2023-04-27T12:33:15.680Z,3.75
2023-04-27T12:34:47.253Z,3.66
2023-04-27T12:36:18.683Z,3.78
2023-04-27T12:37:50.581Z,3.86
2023-04-27T12:39:22.092Z,4.10
2023-04-27T12:40:53.807Z,3.81
2023-04-27T12:42:25.497Z,4.21
2023-04-27T12:43:56.969Z,4.05
2023-04-27T12:45:29.928Z,3.91
2023-04-27T12:47:02.360Z,3.93
2023-04-27T12:48:34.138Z,4.11
2023-04-27T12:50:11.010Z,3.75
2023-04-27T12:51:42.519Z,3.76
2023-04-27T12:53:20.411Z,3.81
2023-04-27T12:54:52.033Z,4.07
2023-04-27T12:56:23.481Z,3.87
2023-04-27T12:57:55.026Z,4.09
2023-04-27T12:59:26.535Z,3.82
2023-04-27T13:00:57.984Z,4.05
2023-04-27T13:02:29.548Z,4.35
2023-04-27T13:04:01.308Z,4.41
2023-04-27T13:05:32.846Z,4.44
2023-04-27T13:07:04.512Z,3.96
2023-04-27T13:08:35.903Z,4.29
2023-04-27T13:10:07.521Z,4.36
2023-04-27T13:11:39.018Z,4.55
2023-04-27T13:13:10.401Z,4.59
2023-04-27T13:14:41.927Z,4.50
2023-04-27T13:16:13.357Z,3.95
2023-04-27T13:17:44.958Z,4.06
2023-04-27T13:19:16.529Z,3.54
2023-04-27T13:20:48.035Z,3.69
2023-04-27T13:22:19.586Z,4.04
2023-04-27T13:23:51.321Z,3.59
2023-04-27T13:25:22.866Z,4.10
2023-04-27T13:26:54.308Z,4.13
2023-04-27T13:28:25.990Z,4.01
2023-04-27T13:29:57.587Z,4.06
2023-04-27T13:31:29.517Z,4.03
2023-04-27T13:33:14.313Z,3.67
2023-04-27T13:34:50.583Z,4.17
2023-04-27T13:36:22.446Z,4.16
2023-04-27T13:37:53.884Z,4.44
2023-04-27T13:39:25.381Z,4.61
2023-04-27T13:40:56.850Z,4.28
2023-04-27T13:42:28.293Z,4.60
2023-04-27T13:44:12.417Z,4.75
2023-04-27T13:45:44.644Z,4.31
2023-04-27T13:47:16.893Z,4.35
2023-04-27T13:48:48.712Z,4.02
2023-04-27T13:50:20.432Z,4.43
2023-04-27T13:51:52.010Z,4.58
2023-04-27T13:53:23.461Z,4.25
2023-04-27T13:54:54.894Z,4.53
2023-04-27T13:56:26.371Z,4.38
2023-04-27T13:57:57.813Z,4.48
2023-04-27T13:59:29.241Z,4.31
2023-04-27T14:01:00.798Z,4.64
2023-04-27T14:02:32.407Z,4.53
2023-04-27T14:04:04.146Z,4.61
2023-04-27T14:05:36.234Z,4.39
2023-04-27T14:07:07.716Z,4.31
2023-04-27T14:08:39.155Z,4.20
2023-04-27T14:10:10.590Z,4.03
2023-04-27T14:11:55.055Z,4.13
2023-04-27T14:13:28.137Z,4.37
2023-04-27T14:14:59.577Z,4.25
2023-04-27T14:16:31.562Z,4.39
2023-04-27T14:18:03.348Z,4.31
2023-04-27T14:19:34.822Z,4.61
2023-04-27T14:21:07.346Z,4.43
2023-04-27T14:22:38.731Z,4.70
2023-04-27T14:24:10.321Z,4.66
2023-04-27T14:25:42.199Z,4.60
2023-04-27T14:27:13.723Z,4.04
2023-04-27T14:28:45.170Z,4.23
2023-04-27T14:30:16.968Z,4.19
2023-04-27T14:31:48.481Z,4.45
2023-04-27T14:33:20.021Z,4.61
2023-04-27T14:34:51.651Z,4.53
2023-04-27T14:36:23.327Z,4.52
2023-04-27T14:37:54.971Z,4.52
2023-04-27T14:39:26.486Z,4.85
2023-04-27T14:40:58.312Z,4.62
2023-04-27T14:42:30.159Z,4.64
2023-04-27T14:44:01.968Z,4.81
2023-04-27T14:45:40.156Z,4.64
2023-04-27T14:47:30.370Z,4.86
2023-04-27T14:49:02.299Z,4.46
2023-04-27T14:50:34.284Z,4.39
2023-04-27T14:52:06.601Z,4.60
2023-04-27T14:53:38.470Z,4.61
2023-04-27T14:55:10.043Z,4.70
2023-04-27T14:56:47.318Z,4.95
2023-04-27T14:58:19.027Z,4.89
2023-04-27T14:59:50.875Z,4.75
2023-04-27T15:01:22.743Z,4.83
2023-04-27T15:02:54.582Z,4.83
2023-04-27T15:04:26.229Z,4.65
2023-04-27T15:06:13.283Z,4.65
2023-04-27T15:07:49.993Z,4.84
2023-04-27T15:09:21.679Z,4.78
2023-04-27T15:10:58.309Z,4.71
2023-04-27T15:12:29.926Z,4.66
2023-04-27T15:14:01.737Z,4.84
2023-04-27T15:15:33.683Z,4.71
2023-04-27T15:17:05.584Z,4.92
2023-04-27T15:18:37.133Z,4.82
2023-04-27T15:20:08.706Z,5.03
2023-04-27T15:21:58.510Z,4.86
2023-04-27T15:23:30.417Z,5.13
2023-04-27T15:25:06.902Z,4.68
2023-04-27T15:27:12.826Z,4.78
2023-04-27T15:28:44.281Z,4.80
2023-04-27T15:30:17.280Z,5.00
2023-04-27T15:31:48.845Z,4.94
2023-04-27T15:33:25.600Z,4.89
2023-04-27T15:35:18.616Z,4.81
2023-04-27T15:36:50.015Z,5.10
2023-04-27T15:38:21.486Z,5.02
2023-04-27T15:42:15.547Z,4.93
2023-04-27T15:43:46.983Z,5.26
2023-04-27T15:45:18.830Z,4.92
2023-04-27T15:46:50.438Z,5.00
2023-04-27T15:48:22.026Z,4.74
2023-04-27T15:50:28.094Z,4.88
2023-04-27T15:52:00.125Z,5.13
2023-04-27T15:53:31.658Z,4.98
2023-04-27T15:55:30.918Z,4.98
2023-04-27T15:57:05.124Z,5.04
2023-04-27T15:58:37.203Z,5.00
2023-04-27T16:00:09.359Z,4.95
2023-04-27T16:01:40.962Z,4.98
2023-04-27T16:03:14.089Z,5.38
2023-04-27T16:04:51.041Z,4.84
2023-04-27T16:06:22.869Z,4.79
2023-04-27T16:08:01.820Z,4.80
2023-04-27T16:09:57.265Z,4.42
2023-04-27T16:11:29.320Z,4.96
2023-04-27T16:13:01.552Z,5.37
2023-04-27T16:14:43.148Z,4.89
2023-04-27T16:16:28.506Z,5.04
2023-04-27T16:18:16.152Z,5.00
2023-04-27T16:19:54.068Z,5.00
2023-04-27T16:21:30.682Z,5.15
2023-04-27T16:23:02.835Z,4.98
2023-04-27T16:24:34.548Z,5.41
2023-04-27T16:26:12.147Z,5.15
2023-04-27T16:27:43.865Z,4.97
2023-04-27T16:29:15.730Z,5.13
2023-04-27T16:30:47.436Z,5.12
2023-04-27T16:32:21.219Z,5.42
2023-04-27T16:33:53.538Z,5.35
2023-04-27T16:35:25.715Z,5.31
2023-04-27T16:37:02.563Z,5.00
2023-04-27T16:38:34.294Z,4.97
2023-04-27T16:40:05.765Z,5.14
2023-04-27T16:41:37.254Z,5.00
2023-04-27T16:43:09.121Z,4.79
2023-04-27T16:44:40.835Z,4.99
2023-04-27T16:46:12.780Z,5.02
2023-04-27T16:47:44.561Z,4.93
2023-04-27T16:49:16.490Z,5.40
2023-04-27T16:50:48.468Z,5.39
2023-04-27T16:52:19.956Z,5.05
2023-04-27T16:53:51.617Z,5.44
2023-04-27T16:55:23.121Z,4.96
2023-04-27T16:56:55.401Z,5.28
2023-04-27T16:58:27.189Z,5.28
2023-04-27T16:59:58.805Z,5.08
2023-04-27T17:01:49.455Z,5.13
2023-04-27T17:03:55.098Z,5.16
2023-04-27T17:05:57.176Z,5.19
2023-04-27T17:07:45.985Z,5.06
2023-04-27T17:09:17.915Z,4.99
2023-04-27T17:11:04.479Z,5.26
2023-04-27T17:12:36.008Z,5.19
2023-04-27T17:14:12.812Z,5.23
2023-04-27T17:15:49.884Z,5.31
2023-04-27T17:17:21.576Z,5.16
2023-04-27T17:18:53.073Z,5.07
2023-04-27T17:20:34.583Z,5.15
2023-04-27T17:22:05.920Z,5.21
2023-04-27T17:23:44.137Z,5.46
2023-04-27T17:25:20.511Z,4.98
2023-04-27T17:26:57.045Z,5.24
2023-04-27T17:28:28.484Z,4.89
2023-04-27T17:29:59.955Z,4.93
2023-04-27T17:31:31.365Z,4.94
2023-04-27T17:33:03.008Z,4.93
2023-04-27T17:34:34.434Z,4.78
2023-04-27T17:36:10.853Z,5.29
2023-04-27T17:37:47.713Z,5.04
2023-04-27T17:39:19.119Z,4.97
2023-04-27T17:40:50.630Z,5.12
2023-04-27T17:42:27.056Z,4.86
2023-04-27T17:43:58.501Z,4.94
2023-04-27T17:45:46.952Z,5.03
2023-04-27T17:47:18.542Z,4.90
2023-04-27T17:48:49.904Z,4.74
2023-04-27T17:50:21.474Z,4.72
2023-04-27T17:51:52.907Z,4.59
2023-04-27T17:53:24.303Z,4.38
2023-04-27T17:54:55.693Z,4.26
2023-04-27T17:56:27.250Z,4.35
2023-04-27T17:57:58.619Z,4.41
2023-04-27T17:59:30.046Z,4.34
2023-04-27T18:01:11.852Z,4.69
2023-04-27T18:02:53.423Z,4.50
2023-04-27T18:04:45.814Z,4.52
2023-04-27T18:06:33.755Z,4.63
2023-04-27T18:08:14.183Z,4.61
2023-04-27T18:10:09.064Z,4.69
2023-04-27T18:11:45.759Z,4.62
2023-04-27T18:13:47.576Z,4.55
2023-04-27T18:15:50.227Z,5.53
2023-04-27T18:17:42.000Z,7.12
2023-04-27T18:19:28.232Z,5.21
2023-04-27T18:21:06.457Z,4.46
2023-04-27T18:22:37.816Z,4.59
2023-04-27T18:24:09.429Z,4.71
2023-04-27T18:25:41.009Z,4.83
2023-04-27T18:27:29.050Z,4.74
2023-04-27T18:29:00.460Z,4.76
2023-04-27T18:30:33.149Z,4.75
2023-04-27T18:32:04.512Z,4.41
2023-04-27T18:33:35.987Z,4.84
2023-04-27T18:35:19.434Z,6.09
2023-04-27T18:36:51.930Z,5.66
2023-04-27T18:38:33.641Z,5.29
2023-04-27T18:40:05.103Z,4.85
2023-04-27T18:41:36.534Z,5.17
2023-04-27T18:43:18.108Z,4.83
2023-04-27T18:44:49.420Z,4.80
2023-04-27T18:46:20.938Z,5.35
2023-04-27T18:47:52.377Z,5.04
2023-04-27T18:49:39.828Z,5.06
2023-04-27T18:51:11.213Z,5.30
2023-04-27T18:53:19.528Z,5.70
2023-04-27T18:54:52.177Z,5.29
2023-04-27T18:56:39.693Z,5.22
2023-04-27T18:58:17.264Z,5.72
2023-04-27T18:59:49.186Z,5.51
2023-04-27T19:01:44.008Z,5.08
2023-04-27T19:03:15.963Z,4.80
2023-04-27T19:04:57.051Z,5.15
2023-04-27T19:06:33.258Z,5.27
2023-04-27T19:08:04.941Z,4.70
2023-04-27T19:09:41.333Z,5.02
2023-04-27T19:11:12.912Z,5.05
2023-04-27T19:12:44.229Z,4.97
2023-04-27T19:14:30.645Z,4.93
2023-04-27T19:16:02.057Z,5.02
2023-04-27T19:17:43.544Z,5.20
2023-04-27T19:19:30.383Z,4.95
2023-04-27T19:21:10.044Z,4.97
2023-04-27T19:23:09.944Z,5.30
2023-04-27T19:24:41.458Z,5.15
2023-04-27T19:26:14.183Z,5.46
2023-04-27T19:27:46.151Z,5.39
2023-04-27T19:29:39.126Z,5.11
2023-04-27T19:31:12.190Z,5.30
2023-04-27T19:32:44.936Z,4.95
2023-04-27T19:34:22.616Z,5.20
2023-04-27T19:35:59.193Z,5.21
2023-04-27T19:38:02.686Z,5.06
2023-04-27T19:39:34.647Z,5.24
2023-04-27T19:41:06.774Z,5.23
2023-04-27T19:42:38.137Z,5.27
2023-04-27T19:44:10.125Z,5.12
2023-04-27T19:45:41.584Z,5.08
2023-04-27T19:47:12.930Z,5.03
2023-04-27T19:49:07.878Z,5.02
2023-04-27T19:50:39.709Z,5.05
2023-04-27T19:52:11.192Z,5.29
2023-04-27T19:53:42.482Z,5.12
2023-04-27T19:55:13.862Z,5.02
2023-04-27T19:56:45.189Z,5.02
2023-04-27T19:58:16.729Z,4.94
2023-04-27T19:59:48.107Z,5.43
2023-04-27T20:01:49.132Z,5.10
2023-04-27T20:03:21.957Z,5.17
2023-04-27T20:04:54.030Z,5.25
2023-04-27T20:06:25.546Z,5.29
2023-04-27T20:07:56.930Z,4.96
2023-04-27T20:09:28.390Z,5.04
2023-04-27T20:10:59.765Z,5.29
2023-04-27T20:12:51.358Z,5.21
2023-04-27T20:14:27.506Z,5.18
2023-04-27T20:15:58.973Z,5.12
2023-04-27T20:17:30.647Z,4.92
2023-04-27T20:19:03.164Z,4.82
2023-04-27T20:20:34.534Z,5.05
2023-04-27T20:22:05.841Z,4.76
2023-04-27T20:23:37.303Z,4.79
2023-04-27T20:25:08.591Z,4.96
2023-04-27T20:26:39.980Z,4.80
2023-04-27T20:28:11.525Z,4.98
2023-04-27T20:29:42.838Z,5.06
2023-04-27T20:31:14.907Z,5.25
2023-04-27T20:32:46.490Z,5.01
2023-04-27T20:34:18.214Z,4.84
2023-04-27T20:35:49.974Z,5.19
2023-04-27T20:37:21.498Z,4.87
2023-04-27T20:38:52.832Z,4.97
2023-04-27T20:40:24.150Z,4.89
2023-04-27T20:41:55.447Z,4.84
2023-04-27T20:43:27.047Z,4.98
2023-04-27T20:44:58.562Z,4.91
2023-04-27T20:46:29.880Z,5.18
2023-04-27T20:48:01.334Z,4.88
2023-04-27T20:49:35.304Z,5.06
2023-04-27T20:51:07.061Z,5.15